Terminal Aerodrome Forecast
Issued by NWS Melbourne, FL

Home | Current Version | Previous Version | Text Only | Print | Product List | Glossary On
Versions: 1 2 3 4 5 6 7 8 9 10 11 12 13
000
FTUS42 KMLB 191135
TAFDAB
TAF
KDAB 191135Z 1912/2012 27004KT P6SM OVC130
     FM191400 19008KT P6SM SCT020 BKN200
     FM191800 25008KT P6SM VCTS SCT040CB BKN250
     FM200100 22003KT P6SM FEW040 BKN250
     FM200800 21005KT P6SM SCT020 BKN100=

USA.gov is the U.S. government's official web portal to all federal, state and local government web resources and services.